createdAt,value
2023-01-20T00:03:37.389Z,100475.13
2023-01-20T00:09:06.744Z,100463.72
2023-01-20T00:14:31.102Z,100443.16
2023-01-20T00:19:53.642Z,100446.63
2023-01-20T00:25:18.237Z,100470.03
2023-01-20T00:30:48.056Z,100450.69
2023-01-20T00:36:14.607Z,100470.63
2023-01-20T00:41:42.373Z,100460.25
2023-01-20T00:47:04.514Z,100462.06
2023-01-20T00:52:26.783Z,100442.34
2023-01-20T00:57:51.853Z,100458.22
2023-01-20T01:03:14.167Z,100437.84
2023-01-20T01:08:36.760Z,100460.19
2023-01-20T01:13:59.082Z,100443.91
2023-01-20T01:19:21.065Z,100447.75
2023-01-20T01:24:45.252Z,100439.00
2023-01-20T01:30:08.344Z,100440.22
2023-01-20T01:35:30.731Z,100422.53
2023-01-20T01:40:54.202Z,100432.69
2023-01-20T01:46:16.314Z,100441.03
2023-01-20T01:51:43.481Z,100436.97
2023-01-20T01:57:08.244Z,100453.88
2023-01-20T02:02:30.665Z,100467.91
2023-01-20T02:07:53.611Z,100462.03
2023-01-20T02:13:15.388Z,100447.59
2023-01-20T02:19:06.829Z,100465.44
2023-01-20T02:24:44.014Z,100448.72
2023-01-20T02:30:34.347Z,100434.88
2023-01-20T02:36:03.165Z,100446.69
2023-01-20T02:41:42.572Z,100448.91
2023-01-20T02:47:32.402Z,100445.22
2023-01-20T02:52:55.997Z,100467.63
2023-01-20T02:58:24.603Z,100463.13
2023-01-20T03:03:53.496Z,100466.22
2023-01-20T03:09:23.942Z,100443.41
2023-01-20T03:14:46.044Z,100480.84
2023-01-20T03:20:14.854Z,100490.19
2023-01-20T03:25:40.486Z,100490.63
2023-01-20T03:31:27.328Z,100477.59
2023-01-20T03:36:50.683Z,100482.69
2023-01-20T03:42:35.002Z,100475.94
2023-01-20T03:48:21.385Z,100464.13
2023-01-20T03:53:58.890Z,100475.34
2023-01-20T03:59:23.617Z,100504.06
2023-01-20T04:04:56.802Z,100504.84
2023-01-20T04:10:19.378Z,100494.66
2023-01-20T04:15:45.013Z,100503.41
2023-01-20T04:21:09.489Z,100501.81
2023-01-20T04:26:36.987Z,100502.22
2023-01-20T04:32:03.541Z,100502.38
2023-01-20T04:37:26.803Z,100507.03
2023-01-20T04:42:49.403Z,100516.22
2023-01-20T04:48:12.160Z,100520.72
2023-01-20T04:53:37.182Z,100520.72
2023-01-20T04:59:00.045Z,100543.91
2023-01-20T05:04:23.843Z,100539.63
2023-01-20T05:09:45.842Z,100542.28
2023-01-20T05:15:08.296Z,100541.09
2023-01-20T05:20:30.342Z,100540.69
2023-01-20T05:25:53.025Z,100537.63
2023-01-20T05:31:15.217Z,100552.91
2023-01-20T05:36:37.366Z,100556.59
2023-01-20T05:41:59.427Z,100558.06
2023-01-20T05:47:21.332Z,100559.00
2023-01-20T05:52:43.504Z,100572.06
2023-01-20T05:58:06.423Z,100563.91
2023-01-20T06:03:31.653Z,100552.53
2023-01-20T06:08:54.978Z,100560.69
2023-01-20T06:14:17.512Z,100543.53
2023-01-20T06:19:42.382Z,100560.06
2023-01-20T06:25:12.907Z,100564.34
2023-01-20T06:30:38.827Z,100574.53
2023-01-20T06:36:05.433Z,100571.75
2023-01-20T06:41:29.944Z,100584.97
2023-01-20T06:46:52.635Z,100595.75
2023-01-20T06:52:14.741Z,100599.63
2023-01-20T06:57:37.211Z,100602.88
2023-01-20T07:02:59.610Z,100587.22
2023-01-20T07:08:21.974Z,100615.50
2023-01-20T07:13:43.982Z,100613.69
2023-01-20T07:19:06.207Z,100627.94
2023-01-20T07:24:28.163Z,100617.31
2023-01-20T07:29:50.083Z,100621.84
2023-01-20T07:35:12.668Z,100627.34
2023-01-20T07:40:35.113Z,100621.00
2023-01-20T07:46:02.111Z,100635.28
2023-01-20T07:51:24.168Z,100634.47
2023-01-20T07:56:45.970Z,100617.31
2023-01-20T08:02:11.977Z,100603.91
2023-01-20T08:07:34.924Z,100600.44
2023-01-20T08:13:00.560Z,100608.75
2023-01-20T08:18:23.181Z,100636.69
2023-01-20T08:23:45.744Z,100602.03
2023-01-20T08:29:13.562Z,100608.16
2023-01-20T08:34:36.252Z,100632.75
2023-01-20T08:40:00.762Z,100612.41
2023-01-20T08:45:25.181Z,100633.72
2023-01-20T08:50:47.662Z,100617.59
2023-01-20T08:56:11.412Z,100634.88
2023-01-20T09:01:38.531Z,100640.38
2023-01-20T09:07:02.872Z,100633.28
2023-01-20T09:12:26.169Z,100627.97
2023-01-20T09:17:48.523Z,100638.50
2023-01-20T09:23:10.453Z,100641.59
2023-01-20T09:28:33.601Z,100616.31
2023-01-20T09:33:56.453Z,100635.50
2023-01-20T09:39:37.215Z,100664.63
2023-01-20T09:45:30.385Z,100665.81
2023-01-20T09:51:18.242Z,100676.22
2023-01-20T09:56:46.505Z,100676.38
2023-01-20T10:02:26.092Z,100668.06
2023-01-20T10:07:57.627Z,100672.53
2023-01-20T10:13:33.293Z,100667.22
2023-01-20T10:19:22.520Z,100671.72
2023-01-20T10:24:48.185Z,100664.56
2023-01-20T10:30:12.810Z,100669.28
2023-01-20T10:35:38.646Z,100663.97
2023-01-20T10:41:23.131Z,100656.63
2023-01-20T10:46:47.903Z,100663.53
2023-01-20T10:52:34.043Z,100656.16
2023-01-20T10:58:02.483Z,100655.75
2023-01-20T11:03:25.754Z,100672.63
2023-01-20T11:08:53.240Z,100672.25
2023-01-20T11:14:15.754Z,100679.56
2023-01-20T11:19:57.429Z,100684.03
2023-01-20T11:25:28.742Z,100671.59
2023-01-20T12:00:02.264Z,100718.59
2023-01-20T12:06:38.759Z,100728.75
2023-01-20T12:12:05.346Z,100700.22
2023-01-20T12:17:57.709Z,100710.28
2023-01-20T12:23:39.933Z,100737.38
2023-01-20T12:29:52.350Z,100745.97
2023-01-20T12:35:16.311Z,100727.25
2023-01-20T12:40:43.893Z,100745.19
2023-01-20T12:46:33.414Z,100733.59
2023-01-20T12:52:15.919Z,100744.00
2023-01-20T12:57:48.035Z,100737.25
2023-01-20T13:03:30.648Z,100737.88
2023-01-20T13:09:28.191Z,100740.34
2023-01-20T13:14:57.835Z,100738.31
2023-01-20T13:20:26.512Z,100740.78
2023-01-20T13:25:49.717Z,100746.72
2023-01-20T13:31:42.250Z,100752.47
2023-01-20T13:37:04.246Z,100760.03
2023-01-20T13:42:38.143Z,100772.28
2023-01-20T13:48:30.557Z,100748.44
2023-01-20T13:53:53.862Z,100747.00
2023-01-20T13:59:17.184Z,100757.38
2023-01-20T14:04:48.649Z,100762.53
2023-01-20T14:10:21.972Z,100755.41
2023-01-20T14:15:45.089Z,100765.81
2023-01-20T14:21:26.847Z,100770.50
2023-01-20T14:26:49.572Z,100771.31
2023-01-20T14:32:37.179Z,100799.88
2023-01-20T14:38:00.077Z,100783.00
2023-01-20T14:43:23.714Z,100780.94
2023-01-20T14:48:47.215Z,100807.47
2023-01-20T14:54:29.582Z,100809.13
2023-01-20T15:00:13.410Z,100821.75
2023-01-20T15:05:37.727Z,100797.50
2023-01-20T15:11:15.102Z,100816.06
2023-01-20T15:16:36.783Z,100824.00
2023-01-20T15:22:21.579Z,100814.00
2023-01-20T15:27:43.615Z,100835.63
2023-01-20T15:33:09.581Z,100842.97
2023-01-20T15:38:32.750Z,100830.13
2023-01-20T15:43:54.673Z,100833.81
2023-01-20T15:49:20.333Z,100845.81
2023-01-20T15:54:45.903Z,100850.31
2023-01-20T16:00:26.776Z,100858.66
2023-01-20T16:05:51.164Z,100853.75
2023-01-20T16:11:18.171Z,100839.28
2023-01-20T16:16:43.899Z,100871.13
2023-01-20T16:22:16.988Z,100871.13
2023-01-20T16:27:44.364Z,100872.72
2023-01-20T16:33:21.813Z,100862.94
2023-01-20T16:38:50.173Z,100867.41
2023-01-20T16:44:14.395Z,100899.22
2023-01-20T16:49:41.052Z,100882.50
2023-01-20T16:55:06.301Z,100897.19
2023-01-20T17:00:29.512Z,100890.66
2023-01-20T17:05:53.092Z,100887.59
2023-01-20T17:11:26.058Z,100922.06
2023-01-20T17:16:59.755Z,100914.28
2023-01-20T17:22:22.532Z,100910.56
2023-01-20T17:27:47.230Z,100923.44
2023-01-20T17:33:09.351Z,100908.50
2023-01-20T17:38:40.518Z,100925.66
2023-01-20T17:44:04.648Z,100914.59
2023-01-20T17:49:26.777Z,100931.34
2023-01-20T17:54:49.182Z,100936.03
2023-01-20T18:00:12.043Z,100944.78
2023-01-20T18:05:36.378Z,100935.59
2023-01-20T18:11:07.484Z,100970.06
2023-01-20T18:16:32.143Z,100974.09
2023-01-20T18:21:54.524Z,100976.53
2023-01-20T18:27:19.265Z,100981.59
2023-01-20T18:32:42.996Z,101003.00
2023-01-20T18:38:04.860Z,100999.75
2023-01-20T18:43:26.804Z,101006.09
2023-01-20T18:48:49.694Z,101000.53
2023-01-20T18:54:18.847Z,101001.78
2023-01-20T18:59:43.971Z,101018.69
2023-01-20T19:05:09.472Z,101021.97
2023-01-20T19:10:36.801Z,101028.34
2023-01-20T19:15:59.412Z,101033.69
2023-01-20T19:21:26.824Z,101022.22
2023-01-20T19:26:52.494Z,101046.09
2023-01-20T19:32:14.574Z,101036.47
2023-01-20T19:37:36.779Z,101039.75
2023-01-20T19:43:01.313Z,101043.97
2023-01-20T19:48:23.760Z,101077.50
2023-01-20T19:53:47.307Z,101083.81
2023-01-20T19:59:12.935Z,101081.38
2023-01-20T20:04:35.112Z,101071.50
2023-01-20T20:09:57.561Z,101085.41
2023-01-20T20:15:19.817Z,101094.75
2023-01-20T20:20:43.913Z,101081.09
2023-01-20T20:26:06.593Z,101096.81
2023-01-20T20:31:29.817Z,101093.03
2023-01-20T20:36:52.505Z,101097.25
2023-01-20T20:42:17.156Z,101119.03
2023-01-20T20:47:39.173Z,101117.13
2023-01-20T20:53:01.126Z,101115.25
2023-01-20T20:58:23.379Z,101136.56
2023-01-20T21:03:48.352Z,101147.94
2023-01-20T21:09:10.877Z,101156.63
2023-01-20T21:14:33.145Z,101149.06
2023-01-20T21:19:54.886Z,101160.75
2023-01-20T21:25:18.143Z,101171.34
2023-01-20T21:30:39.934Z,101182.75
2023-01-20T21:36:02.792Z,101187.22
2023-01-20T21:41:25.105Z,101192.72
2023-01-20T21:47:01.748Z,101188.72
2023-01-20T21:52:43.346Z,101213.44
2023-01-20T21:58:05.872Z,101186.38
2023-01-20T22:03:28.197Z,101202.13
2023-01-20T22:08:50.416Z,101197.31
2023-01-20T22:14:13.024Z,101204.78
2023-01-20T22:19:35.638Z,101220.28
2023-01-20T22:24:57.742Z,101218.19
2023-01-20T22:30:20.412Z,101237.97
2023-01-20T22:35:45.053Z,101225.84
2023-01-20T22:41:10.293Z,101245.28
2023-01-20T22:46:32.477Z,101263.16
2023-01-20T22:51:55.693Z,101266.44
2023-01-20T22:57:17.693Z,101283.13
2023-01-20T23:08:29.493Z,101311.69
2023-01-20T23:13:52.732Z,101311.84
2023-01-20T23:19:14.715Z,101307.41
2023-01-20T23:24:36.460Z,101306.00
2023-01-20T23:29:58.593Z,101340.59
2023-01-20T23:35:20.576Z,101335.50
2023-01-20T23:40:42.240Z,101340.69
2023-01-20T23:46:07.165Z,101343.53
2023-01-20T23:51:32.031Z,101330.38
2023-01-20T23:56:59.625Z,101333.38
